Time;durP1;ratioP1;P1;durP2;ratioP2;P2;SDS_P1;SDS_P2;PMS_P1;PMS_P2;Temp;Humidity;BMP_temperature;BMP_pressure;BME280_temperature;BME280_humidity;BME280_pressure;Samples;Min_cycle;Max_cycle;Signal;HPM_P1;HPM_P2
2021/06/02 00:02:23;;;;;;;6.33;2.33;;;;;;;10.21;65.62;100199.39;1654622;85;21514;-78
2021/06/02 00:04:51;;;;;;;6.00;2.50;;;;;;;10.20;65.14;100196.36;1678822;84;21238;-78
2021/06/02 00:07:21;;;;;;;7.17;2.30;;;;;;;10.22;65.76;100197.64;1630669;80;21586;-77
2021/06/02 00:09:49;;;;;;;5.60;2.60;;;;;;;10.23;66.01;100196.25;1616791;88;21805;-76
2021/06/02 00:12:18;;;;;;;5.75;2.02;;;;;;;10.23;65.12;100197.56;1602216;88;21174;-78
2021/06/02 00:14:45;;;;;;;4.53;2.65;;;;;;;10.26;66.53;100202.75;1594378;89;21130;-76
2021/06/02 00:17:12;;;;;;;7.95;2.52;;;;;;;10.25;65.70;100198.38;1611928;88;21142;-74
2021/06/02 00:19:39;;;;;;;3.83;2.27;;;;;;;10.26;65.54;100189.58;1613721;88;21115;-74
2021/06/02 00:22:07;;;;;;;5.28;2.45;;;;;;;10.27;67.18;100188.66;1648415;82;21151;-75
2021/06/02 00:24:34;;;;;;;6.20;2.47;;;;;;;10.31;64.96;100193.84;1652602;85;20986;-75
2021/06/02 00:27:04;;;;;;;9.05;2.50;;;;;;;10.32;65.85;100190.31;1652803;85;21006;-75
2021/06/02 00:29:33;;;;;;;7.08;2.58;;;;;;;10.33;65.55;100185.43;1661141;85;20992;-79
2021/06/02 00:32:05;;;;;;;7.50;2.58;;;;;;;10.34;64.98;100185.86;1658893;85;21796;-77
2021/06/02 00:34:31;;;;;;;5.65;2.35;;;;;;;10.35;65.55;100181.83;1663251;85;21112;-76
2021/06/02 00:37:00;;;;;;;11.25;3.15;;;;;;;10.37;65.61;100180.47;1655736;83;21058;-81
2021/06/02 00:39:27;;;;;;;4.83;2.33;;;;;;;10.39;65.18;100181.28;1649889;87;20971;-82
2021/06/02 00:41:54;;;;;;;5.35;2.55;;;;;;;10.39;68.02;100181.28;1648083;87;21041;-81
2021/06/02 00:44:21;;;;;;;8.43;2.40;;;;;;;10.41;64.87;100179.45;1649819;87;20943;-82
2021/06/02 00:46:51;;;;;;;4.40;2.40;;;;;;;10.43;65.63;100180.27;1641709;87;20959;-82
2021/06/02 00:49:24;;;;;;;5.78;2.58;;;;;;;10.44;65.04;100176.70;1675619;85;20934;-82
2021/06/02 00:52:02;;;;;;;7.28;2.87;;;;;;;10.44;64.26;100179.34;1646451;79;21509;-76
2021/06/02 00:54:36;;;;;;;10.35;2.77;;;;;;;10.45;65.15;100173.17;1630770;87;20939;-75
2021/06/02 00:57:13;;;;;;;8.43;2.70;;;;;;;10.45;64.60;100175.34;1624769;87;21060;-75
2021/06/02 01:00:10;;;;;;;4.90;2.77;;;;;;;10.47;64.87;100175.30;1627719;87;21117;-77
2021/06/02 01:02:37;;;;;;;6.33;2.85;;;;;;;10.46;64.40;100172.24;1597768;87;21056;-77
2021/06/02 01:05:05;;;;;;;5.40;2.62;;;;;;;10.42;64.64;100174.14;1622422;87;21147;-76
2021/06/02 01:07:35;;;;;;;5.70;2.30;;;;;;;10.42;64.38;100169.31;1623924;80;21006;-79
2021/06/02 01:10:04;;;;;;;8.18;2.98;;;;;;;10.40;65.15;100164.12;1663787;85;21386;-79
2021/06/02 01:12:33;;;;;;;3.75;2.60;;;;;;;10.38;63.96;100169.05;1675070;85;21111;-79
2021/06/02 01:15:01;;;;;;;5.22;2.90;;;;;;;10.38;64.94;100167.73;1670932;85;20990;-77
2021/06/02 01:17:30;;;;;;;12.35;2.17;;;;;;;10.37;65.75;100169.94;1647567;85;21910;-75
2021/06/02 01:19:59;;;;;;;9.80;2.60;;;;;;;10.36;64.60;100166.92;1647610;85;21018;-75
2021/06/02 01:22:29;;;;;;;5.92;2.47;;;;;;;10.35;65.60;100169.98;1645193;81;21039;-75
2021/06/02 01:24:56;;;;;;;5.08;2.45;;;;;;;10.34;64.82;100170.06;1641934;86;21177;-75
2021/06/02 01:27:23;;;;;;;8.50;2.90;;;;;;;10.35;64.36;100173.08;1641363;87;21053;-74
2021/06/02 01:29:51;;;;;;;8.48;2.80;;;;;;;10.34;65.26;100170.06;1636823;87;21005;-73
2021/06/02 01:32:54;;;;;;;8.95;3.05;;;;;;;10.34;64.38;100171.38;1641399;86;20963;-74
2021/06/02 01:36:03;;;;;;;6.05;2.52;;;;;;;10.32;65.24;100166.62;1632567;87;21482;-75
2021/06/02 01:38:43;;;;;;;6.33;2.98;;;;;;;10.31;65.67;100166.20;1637581;85;21085;-77
2021/06/02 01:41:19;;;;;;;8.35;2.80;;;;;;;10.29;64.45;100175.02;1654163;85;20948;-77
2021/06/02 01:44:10;;;;;;;8.08;2.77;;;;;;;10.28;64.62;100174.63;1679259;84;21510;-75
2021/06/02 01:47:19;;;;;;;5.17;2.83;;;;;;;10.27;66.27;100173.33;1681285;84;21544;-75
2021/06/02 01:50:23;;;;;;;5.33;2.90;;;;;;;10.26;66.52;100171.16;1690717;84;21038;-75
2021/06/02 01:53:32;;;;;;;4.47;2.70;;;;;;;10.27;65.02;100175.50;1614237;81;21137;-80
2021/06/02 01:56:44;;;;;;;6.00;2.80;;;;;;;10.27;64.73;100168.06;1606305;89;20978;-80
2021/06/02 01:59:36;;;;;;;5.58;2.83;;;;;;;10.29;65.18;100173.70;1591586;89;21011;-79
2021/06/02 02:02:43;;;;;;;6.62;2.92;;;;;;;10.29;66.13;100171.08;1586833;90;21668;-80
2021/06/02 02:05:33;;;;;;;6.47;2.75;;;;;;;10.32;64.58;100178.00;1593304;90;21594;-84
2021/06/02 02:08:26;;;;;;;6.12;2.95;;;;;;;10.34;64.42;100180.59;1605379;89;20968;-75
2021/06/02 02:11:06;;;;;;;6.22;2.92;;;;;;;10.36;64.77;100180.08;1621088;87;20931;-75
2021/06/02 02:14:18;;;;;;;3.75;3.10;;;;;;;10.37;65.24;100185.27;1603116;89;20950;-75
2021/06/02 02:16:59;;;;;;;3.15;2.62;;;;;;;10.40;64.27;100181.23;1607227;87;21684;-75
2021/06/02 02:20:00;;;;;;;12.98;2.90;;;;;;;10.43;65.26;100190.80;1609321;89;21488;-77
2021/06/02 02:23:07;;;;;;;12.03;3.17;;;;;;;10.44;65.00;100181.97;1664207;81;21816;-77
2021/06/02 02:25:56;;;;;;;8.68;3.17;;;;;;;10.45;64.84;100187.66;1690551;83;20962;-75
2021/06/02 02:28:51;;;;;;;11.78;3.05;;;;;;;10.44;63.67;100178.02;1697802;83;20982;-76
2021/06/02 02:31:55;;;;;;;7.62;2.50;;;;;;;10.48;64.21;100188.84;1701244;83;21053;-75
2021/06/02 02:34:56;;;;;;;5.25;2.60;;;;;;;10.48;65.11;100189.70;1695092;83;20961;-77
2021/06/02 02:37:46;;;;;;;6.58;3.00;;;;;;;10.48;64.57;100197.60;1661784;78;21783;-76
2021/06/02 02:40:38;;;;;;;5.85;2.40;;;;;;;10.50;64.16;100190.97;1608429;87;21105;-76
2021/06/02 02:43:16;;;;;;;4.33;3.00;;;;;;;10.55;64.65;100192.13;1605454;87;21030;-76
2021/06/02 02:46:09;;;;;;;6.03;2.90;;;;;;;10.56;63.71;100193.40;1552112;89;21066;-76
2021/06/02 02:48:57;;;;;;;6.50;3.15;;;;;;;10.59;63.47;100190.64;1605365;89;21376;-76
2021/06/02 02:52:03;;;;;;;8.18;2.42;;;;;;;10.59;63.80;100191.96;1622398;81;21140;31
2021/06/02 02:54:56;;;;;;;9.30;3.70;;;;;;;10.61;64.12;100195.87;1628725;87;21073;-78
2021/06/02 02:58:04;;;;;;;9.58;3.25;;;;;;;10.60;63.36;100194.98;1604155;88;21478;-78
2021/06/02 03:01:03;;;;;;;4.60;2.75;;;;;;;10.64;63.14;100204.50;1633051;87;21017;-78
2021/06/02 03:03:35;;;;;;;3.67;2.80;;;;;;;10.67;63.70;100207.48;1620213;87;21014;-78
2021/06/02 03:06:07;;;;;;;7.75;2.67;;;;;;;10.70;64.29;100205.61;1633453;87;21102;-79
2021/06/02 03:09:20;;;;;;;5.47;2.75;;;;;;;10.74;63.15;100202.38;1631139;83;21539;-76
2021/06/02 03:11:52;;;;;;;6.70;3.05;;;;;;;10.81;63.22;100200.39;1642666;86;21480;-78
2021/06/02 03:14:25;;;;;;;10.35;3.35;;;;;;;10.85;64.48;100203.31;1666422;84;21002;-77
2021/06/02 03:17:16;;;;;;;9.60;3.22;;;;;;;10.87;63.07;100204.13;1660583;86;21544;-78
2021/06/02 03:20:02;;;;;;;;;;;;;;;10.91;62.84;100204.41;1663716;86;21121;-78
2021/06/02 03:23:09;;;;;;;6.78;2.67;;;;;;;10.93;63.64;100209.17;1679639;82;20158;-79
2021/06/02 03:25:48;;;;;;;10.45;3.33;;;;;;;10.94;63.16;100212.66;1709421;83;21341;-77
2021/06/02 03:28:49;;;;;;;7.22;3.02;;;;;;;10.94;62.54;100216.15;1705228;83;20997;-79
2021/06/02 03:32:05;;;;;;;10.70;3.40;;;;;;;10.94;63.55;100205.61;1709899;83;21056;-78
2021/06/02 03:35:10;;;;;;;7.62;2.80;;;;;;;10.95;63.50;100213.94;1693807;83;21126;-79
2021/06/02 03:38:05;;;;;;;8.18;3.00;;;;;;;10.95;63.05;100212.61;1674816;83;20939;-78
2021/06/02 03:41:03;;;;;;;8.98;3.20;;;;;;;10.94;62.79;100216.15;1645291;86;20999;-77
2021/06/02 03:43:47;;;;;;;7.72;3.47;;;;;;;10.92;62.90;100217.98;1658653;85;21604;-76
2021/06/02 03:46:58;;;;;;;9.13;2.95;;;;;;;10.92;63.61;100216.66;1654831;85;21038;-77
2021/06/02 03:49:34;;;;;;;;;;;;;;;10.94;63.10;100212.20;1676327;85;21081;-78
2021/06/02 03:52:06;;;;;;;9.93;3.75;;;;;;;10.95;62.93;100215.25;1675688;85;20441;-80
2021/06/02 03:55:02;;;;;;;10.43;3.27;;;;;;;10.98;64.44;100215.12;1657915;85;21002;-78
2021/06/02 03:57:42;;;;;;;6.30;2.95;;;;;;;10.98;63.14;100204.59;1660326;85;21093;-78
2021/06/02 04:00:17;;;;;;;11.48;2.95;;;;;;;10.98;62.93;100207.22;1665468;85;21019;-80
2021/06/02 04:03:05;;;;;;;13.88;3.02;;;;;;;11.01;63.20;100208.41;1649935;85;21131;-80
2021/06/02 04:06:03;;;;;;;6.53;3.17;;;;;;;11.04;63.48;100207.00;1667471;85;21435;-77
2021/06/02 04:08:43;;;;;;;10.03;2.75;;;;;;;11.11;63.04;100207.60;1689341;82;21035;-79
2021/06/02 04:11:48;;;;;;;5.78;3.37;;;;;;;11.12;62.96;100207.55;1696475;84;21014;-79
2021/06/02 04:14:36;;;;;;;6.28;2.70;;;;;;;11.12;63.28;100205.38;1709154;82;21085;-75
2021/06/02 04:17:03;;;;;;;8.78;2.83;;;;;;;11.15;63.26;100209.20;1721617;82;21042;-77
2021/06/02 04:19:33;;;;;;;10.20;3.45;;;;;;;11.18;62.64;100203.84;1714703;82;21038;-77
2021/06/02 04:22:08;;;;;;;12.03;2.95;;;;;;;11.20;64.10;100200.66;1710346;80;78028;-89
2021/06/02 04:24:37;;;;;;;6.05;2.83;;;;;;;11.23;62.56;100201.88;1687960;84;20886;-91
2021/06/02 04:27:05;;;;;;;7.37;3.15;;;;;;;11.27;62.78;100197.33;1687718;84;21019;-92
2021/06/02 04:29:32;;;;;;;7.60;2.75;;;;;;;11.31;62.56;100194.52;1695045;80;21369;-89
2021/06/02 04:32:06;;;;;;;4.20;2.85;;;;;;;11.34;61.92;100194.84;1691794;84;21002;-87
2021/06/02 04:34:34;;;;;;;4.08;2.77;;;;;;;11.37;63.20;100200.02;1695070;83;21135;-90
2021/06/02 04:37:05;;;;;;;6.90;3.08;;;;;;;11.39;62.69;100191.59;1701028;79;76864;-72
2021/06/02 04:39:37;;;;;;;5.78;2.30;;;;;;;11.42;62.30;100194.10;1705019;82;20991;-74
2021/06/02 04:42:05;;;;;;;11.67;3.27;;;;;;;11.47;63.80;100192.13;1708915;82;21101;-74
2021/06/02 04:44:32;;;;;;;5.55;3.20;;;;;;;11.51;61.79;100198.16;1691577;83;21032;-72
2021/06/02 04:47:00;;;;;;;6.15;2.92;;;;;;;11.56;61.76;100194.88;1687174;84;21021;-70
2021/06/02 04:50:00;;;;;;;11.55;2.77;;;;;;;11.61;61.60;100203.92;1693083;84;20986;-73
2021/06/02 04:52:35;;;;;;;10.75;3.33;;;;;;;11.63;61.53;100199.45;1711008;80;20978;-78
2021/06/02 04:55:14;;;;;;;12.73;3.05;;;;;;;11.72;61.75;100199.08;1653390;84;21038;-77
2021/06/02 04:58:25;;;;;;;7.10;3.33;;;;;;;11.78;61.51;100205.87;1714431;82;20969;-78
2021/06/02 05:01:22;;;;;;;9.28;3.60;;;;;;;11.84;61.16;100197.71;1704587;82;27249;-78
2021/06/02 05:04:23;;;;;;;9.40;3.08;;;;;;;11.88;61.08;100200.20;1706211;83;20973;-77
2021/06/02 05:07:19;;;;;;;6.78;2.87;;;;;;;11.90;61.97;100203.63;1653787;85;21015;-78
2021/06/02 05:10:33;;;;;;;11.33;3.10;;;;;;;11.94;61.95;100194.67;1673645;85;21304;-76
2021/06/02 05:13:46;;;;;;;8.33;3.05;;;;;;;12.00;60.83;100197.97;1647736;87;20980;-76
2021/06/02 05:16:49;;;;;;;15.63;3.42;;;;;;;12.05;60.92;100198.62;1646068;87;21459;-76
2021/06/02 05:22:52;;;;;;;6.17;2.95;;;;;;;12.23;62.28;100203.59;1658329;80;21242;-78
2021/06/02 05:26:12;;;;;;;7.50;3.05;;;;;;;12.29;61.03;100200.70;1693035;83;21763;-78
2021/06/02 05:29:06;;;;;;;7.45;2.80;;;;;;;12.28;61.75;100206.42;1687703;83;21038;-78
2021/06/02 05:32:00;;;;;;;7.08;3.20;;;;;;;12.30;62.56;100213.82;1683697;83;21593;-79
2021/06/02 05:34:57;;;;;;;10.78;3.40;;;;;;;12.30;63.95;100209.02;1689905;84;21038;-77
2021/06/02 05:37:40;;;;;;;6.60;2.85;;;;;;;12.25;63.65;100209.67;1620161;80;21018;-87
2021/06/02 05:40:40;;;;;;;12.37;3.50;;;;;;;12.14;64.14;100206.16;1685149;83;21260;-85
2021/06/02 05:43:47;;;;;;;8.30;3.70;;;;;;;12.06;65.25;100203.00;1681680;83;21019;-85
2021/06/02 05:46:45;;;;;;;5.60;2.98;;;;;;;12.04;66.44;100210.13;1676194;84;21009;-86
2021/06/02 05:49:57;;;;;;;8.98;3.10;;;;;;;12.04;66.42;100207.48;1698619;83;20929;-86
2021/06/02 05:52:41;;;;;;;9.10;3.60;;;;;;;12.03;67.58;100213.67;1664761;80;20973;-76
2021/06/02 05:55:45;;;;;;;9.65;3.62;;;;;;;12.06;67.50;100208.28;1712829;82;21058;-78
2021/06/02 05:58:32;;;;;;;11.28;3.80;;;;;;;12.10;67.65;100216.45;1694297;83;21047;-76
2021/06/02 06:01:34;;;;;;;12.13;3.85;;;;;;;12.13;67.31;100217.66;1697426;79;76996;-88
2021/06/02 06:04:53;;;;;;;8.03;3.17;;;;;;;12.25;66.30;100214.48;1710770;82;21027;-88
2021/06/02 06:07:42;;;;;;;4.70;2.75;;;;;;;12.37;66.04;100210.45;1667394;79;76448;-70
2021/06/02 06:10:46;;;;;;;8.65;3.30;;;;;;;12.50;67.32;100219.58;1700780;82;21000;-69
2021/06/02 06:13:19;;;;;;;12.20;3.47;;;;;;;12.58;65.88;100221.44;1712090;82;20992;-74
2021/06/02 06:16:41;;;;;;;6.42;2.65;;;;;;;12.65;65.80;100223.31;1723456;82;20986;-76
2021/06/02 06:19:32;;;;;;;12.43;2.87;;;;;;;12.73;64.96;100226.48;1715298;82;21000;-74
2021/06/02 06:22:40;;;;;;;11.55;3.02;;;;;;;12.83;63.52;100218.15;1714938;82;20936;-74
2021/06/02 06:25:16;;;;;;;7.47;2.70;;;;;;;12.93;61.99;100217.68;1657910;83;21153;-70
2021/06/02 06:28:09;;;;;;;5.60;2.33;;;;;;;13.03;61.44;100211.97;1666886;83;21039;-71
2021/06/02 06:30:39;;;;;;;9.75;2.85;;;;;;;13.18;62.08;100212.12;1664377;83;21024;-72
2021/06/02 06:33:09;;;;;;;8.58;3.00;;;;;;;13.42;60.61;100203.99;1658539;85;21071;-72
2021/06/02 06:35:40;;;;;;;9.03;3.05;;;;;;;13.61;58.84;100196.02;1656838;85;21578;-73
2021/06/02 06:38:22;;;;;;;5.33;2.77;;;;;;;13.80;59.22;100202.59;1657945;79;21785;-71
2021/06/02 06:40:52;;;;;;;9.78;2.77;;;;;;;13.97;58.30;100205.27;1642161;85;21521;-72
2021/06/02 06:43:19;;;;;;;4.53;2.67;;;;;;;14.15;57.42;100193.34;1633730;85;21061;-71
2021/06/02 06:45:46;;;;;;;7.83;2.50;;;;;;;14.28;57.66;100197.09;1668678;85;21550;-74
2021/06/02 06:48:15;;;;;;;9.85;2.80;;;;;;;14.39;55.95;100187.27;1680576;84;21364;-74
2021/06/02 06:50:53;;;;;;;7.78;2.42;;;;;;;14.47;55.98;100200.52;1680887;85;21051;-74
2021/06/02 06:53:20;;;;;;;9.65;2.72;;;;;;;14.53;56.35;100198.48;1659306;82;20991;-73
2021/06/02 06:55:49;;;;;;;8.95;2.47;;;;;;;14.57;55.33;100200.07;1664521;84;20986;-71
2021/06/02 06:58:16;;;;;;;7.80;2.40;;;;;;;14.54;55.08;100201.09;1649160;85;21431;-72
2021/06/02 07:00:44;;;;;;;9.88;2.60;;;;;;;14.46;54.74;100204.09;1672485;83;21033;-71
2021/06/02 07:03:16;;;;;;;11.05;2.50;;;;;;;14.38;55.23;100204.97;1692576;83;21624;-72
2021/06/02 07:05:44;;;;;;;13.95;2.90;;;;;;;14.37;56.45;100192.64;1688167;83;21023;-70
2021/06/02 07:08:11;;;;;;;4.80;2.37;;;;;;;14.34;55.04;100201.23;1688904;79;21089;-70
2021/06/02 07:10:38;;;;;;;5.45;2.25;;;;;;;14.38;54.85;100197.02;1705090;83;20983;-71
2021/06/02 07:13:07;;;;;;;5.03;2.30;;;;;;;14.44;54.63;100200.66;1708314;83;21509;-71
2021/06/02 07:15:34;;;;;;;5.95;2.45;;;;;;;14.54;54.26;100193.55;1707130;82;21147;-70
2021/06/02 07:18:02;;;;;;;16.90;2.90;;;;;;;14.62;54.10;100195.38;1699160;83;21050;-71
2021/06/02 07:20:30;;;;;;;6.03;2.37;;;;;;;14.68;54.11;100189.28;1674234;84;21073;-71
2021/06/02 07:22:57;;;;;;;7.35;2.15;;;;;;;14.72;53.14;100194.41;1699498;79;21271;-74
2021/06/02 07:25:27;;;;;;;12.13;2.62;;;;;;;14.75;52.84;100194.27;1683036;83;21016;-73
2021/06/02 07:27:57;;;;;;;13.72;2.98;;;;;;;14.71;52.20;100210.80;1680296;83;21474;-75
2021/06/02 07:30:26;;;;;;;12.65;2.50;;;;;;;14.70;53.30;100211.75;1686894;83;20978;-73
2021/06/02 07:32:55;;;;;;;10.05;2.67;;;;;;;14.71;53.52;100208.14;1701297;82;20994;-75
2021/06/02 07:35:22;;;;;;;9.80;2.67;;;;;;;14.78;52.93;100205.55;1642915;87;21077;-74
2021/06/02 07:37:49;;;;;;;17.55;3.35;;;;;;;14.83;54.14;100207.48;1646955;80;21058;-72
2021/06/02 07:40:16;;;;;;;11.68;2.47;;;;;;;14.84;52.42;100209.69;1731401;81;21035;-71
2021/06/02 07:42:44;;;;;;;20.27;2.70;;;;;;;14.79;52.58;100208.61;1733084;82;21001;-71
2021/06/02 07:45:12;;;;;;;8.35;2.50;;;;;;;14.72;52.82;100206.34;1690765;83;21014;-72
2021/06/02 07:47:39;;;;;;;8.90;2.60;;;;;;;14.69;53.18;100213.52;1716657;81;21048;-71
2021/06/02 07:50:09;;;;;;;13.43;2.50;;;;;;;14.76;54.12;100223.33;1714851;82;21021;-71
2021/06/02 07:52:44;;;;;;;7.90;2.65;;;;;;;14.88;53.73;100229.33;1733390;82;21118;-74
2021/06/02 07:55:12;;;;;;;7.28;2.02;;;;;;;15.00;52.54;100217.64;1689150;83;21025;-72
2021/06/02 07:57:40;;;;;;;7.65;2.22;;;;;;;15.03;52.97;100221.48;1696960;83;20967;-72
2021/06/02 08:00:07;;;;;;;5.80;2.40;;;;;;;15.10;52.50;100222.86;1681865;85;21062;-73
2021/06/02 08:02:39;;;;;;;8.78;2.75;;;;;;;15.16;53.00;100222.98;1657542;86;20998;-73
2021/06/02 08:05:07;;;;;;;12.43;2.70;;;;;;;15.18;52.81;100216.65;1684861;85;21837;-73
2021/06/02 08:07:34;;;;;;;11.08;3.20;;;;;;;15.21;51.98;100201.91;1728169;82;20997;-72
2021/06/02 08:10:01;;;;;;;9.10;2.50;;;;;;;15.22;51.70;100211.56;1657573;81;21494;-72
2021/06/02 08:12:28;;;;;;;15.13;2.77;;;;;;;15.25;51.13;100211.42;1715048;83;21018;-72
2021/06/02 08:14:57;;;;;;;4.15;2.27;;;;;;;15.34;51.48;100211.83;1724085;82;20983;-73
2021/06/02 08:17:24;;;;;;;11.20;2.50;;;;;;;15.44;51.37;100202.44;1733283;82;21253;-71
2021/06/02 08:19:52;;;;;;;7.37;2.20;;;;;;;15.54;50.76;100203.62;1686356;84;20898;-70
2021/06/02 08:22:21;;;;;;;8.48;2.50;;;;;;;15.63;50.83;100201.77;1670161;85;21117;-72
2021/06/02 08:24:49;;;;;;;13.08;2.52;;;;;;;15.79;49.85;100211.55;1693142;81;21015;-73
2021/06/02 08:27:16;;;;;;;4.17;2.12;;;;;;;15.84;48.87;100201.03;1713803;82;21546;-75
2021/06/02 08:29:43;;;;;;;12.70;2.75;;;;;;;15.93;49.45;100212.94;1742537;81;21163;-75
2021/06/02 08:32:12;;;;;;;8.83;2.17;;;;;;;16.00;49.13;100204.99;1718045;83;21026;-73
2021/06/02 08:34:39;;;;;;;15.65;2.37;;;;;;;16.11;48.60;100211.86;1710586;83;21486;-75
2021/06/02 08:37:07;;;;;;;10.88;2.60;;;;;;;16.18;49.26;100219.48;1712155;83;21020;-76
2021/06/02 08:39:33;;;;;;;6.62;2.20;;;;;;;16.12;49.08;100224.19;1694280;80;21935;-74
2021/06/02 08:42:02;;;;;;;8.28;2.42;;;;;;;15.99;48.96;100220.56;1688893;84;21030;-73
2021/06/02 08:44:29;;;;;;;5.30;2.30;;;;;;;15.94;49.89;100231.45;1688535;82;21462;-72
2021/06/02 08:46:56;;;;;;;26.23;4.08;;;;;;;16.03;49.74;100230.03;1685150;84;21111;-73
2021/06/02 08:49:23;;;;;;;8.00;2.62;;;;;;;15.98;49.50;100216.17;1675197;84;21031;-74
2021/06/02 08:51:52;;;;;;;10.25;2.62;;;;;;;15.89;50.00;100221.53;1678010;85;21501;-72
2021/06/02 08:54:23;;;;;;;7.40;2.37;;;;;;;15.89;51.39;100225.52;1669336;79;21121;-74
2021/06/02 08:56:50;;;;;;;8.88;2.70;;;;;;;15.85;51.62;100228.44;1665796;85;21014;-74
2021/06/02 08:59:18;;;;;;;12.10;2.55;;;;;;;15.81;50.38;100218.48;1669764;85;21010;-74
2021/06/02 09:01:45;;;;;;;10.30;2.47;;;;;;;15.70;51.62;100227.05;1668211;85;21619;-74
2021/06/02 09:04:14;;;;;;;6.25;2.00;;;;;;;15.66;50.50;100228.61;1657551;85;21010;-73
2021/06/02 09:06:45;;;;;;;8.60;3.40;;;;;;;15.70;51.21;100231.03;1657923;85;21462;-74
2021/06/02 09:09:16;;;;;;;8.80;2.35;;;;;;;15.77;51.68;100224.06;1699481;80;21473;-71
2021/06/02 09:11:48;;;;;;;13.13;2.65;;;;;;;15.82;50.64;100229.95;1750170;80;21459;-72
2021/06/02 09:14:27;;;;;;;5.12;2.05;;;;;;;15.83;51.10;100231.20;1751298;81;21464;-72
2021/06/02 09:16:56;;;;;;;13.08;2.50;;;;;;;15.80;50.46;100231.84;1751553;81;20993;-72
2021/06/02 09:19:44;;;;;;;10.10;2.67;;;;;;;15.84;51.66;100221.44;1751414;82;21590;-72
2021/06/02 09:22:15;;;;;;;8.48;2.40;;;;;;;15.94;50.20;100226.59;1754391;80;20985;-71
2021/06/02 09:25:02;;;;;;;11.83;1.70;;;;;;;15.96;49.89;100234.00;1703232;79;20987;-73
2021/06/02 09:27:51;;;;;;;11.20;2.20;;;;;;;16.00;49.57;100228.05;1681896;85;21436;-74
2021/06/02 09:30:24;;;;;;;9.05;2.05;;;;;;;16.08;50.39;100226.66;1654875;86;21500;-74
2021/06/02 09:32:55;;;;;;;7.90;2.67;;;;;;;16.24;49.22;100217.77;1628728;85;20961;-73
2021/06/02 09:35:24;;;;;;;7.65;2.37;;;;;;;16.32;48.89;100220.84;1668538;85;20974;-72
2021/06/02 09:37:56;;;;;;;6.08;2.12;;;;;;;16.45;49.37;100217.84;1673702;84;21030;-73
2021/06/02 09:40:35;;;;;;;17.77;2.58;;;;;;;16.64;48.66;100222.05;1691096;78;21020;-74
2021/06/02 09:43:02;;;;;;;14.95;2.70;;;;;;;16.82;48.60;100231.59;1666766;85;21867;-73
2021/06/02 09:45:30;;;;;;;12.18;2.37;;;;;;;17.03;48.57;100220.58;1615559;88;21211;-73
2021/06/02 09:48:05;;;;;;;6.65;2.10;;;;;;;17.13;47.82;100217.70;1680320;84;21002;-73
2021/06/02 09:50:37;;;;;;;7.17;2.08;;;;;;;17.26;47.09;100215.98;1604034;88;21624;-75
2021/06/02 09:53:24;;;;;;;13.65;2.20;;;;;;;17.29;46.70;100223.77;1628552;87;21008;-74
2021/06/02 09:55:51;;;;;;;12.00;2.30;;;;;;;17.29;46.07;100226.42;1677172;84;21005;-71
2021/06/02 09:58:20;;;;;;;8.15;2.42;;;;;;;17.34;47.20;100226.13;1714860;82;21031;-70
2021/06/02 10:00:56;;;;;;;6.37;2.30;;;;;;;17.36;45.82;100221.09;1714983;82;21585;-71
2021/06/02 10:03:27;;;;;;;5.20;1.80;;;;;;;17.39;45.63;100230.23;1704105;84;20980;-72
2021/06/02 10:05:54;;;;;;;8.28;1.90;;;;;;;17.40;44.93;100235.92;1703007;84;21037;-72
2021/06/02 10:08:34;;;;;;;10.68;2.27;;;;;;;17.37;44.63;100228.14;1699691;80;21637;-73
2021/06/02 10:11:13;;;;;;;8.03;2.55;;;;;;;17.37;44.82;100224.63;1626716;87;21081;-74
2021/06/02 10:13:40;;;;;;;4.45;1.57;;;;;;;17.30;45.29;100233.48;1632033;87;21038;-76
2021/06/02 10:16:13;;;;;;;9.75;2.37;;;;;;;17.31;44.71;100230.33;1629519;87;21017;-74
2021/06/02 10:18:45;;;;;;;12.93;2.70;;;;;;;17.37;45.15;100230.80;1609371;88;21099;-74
2021/06/02 10:21:13;;;;;;;10.08;2.00;;;;;;;17.45;45.09;100240.10;1604732;87;21436;-74
2021/06/02 10:23:45;;;;;;;5.92;1.90;;;;;;;17.44;44.31;100233.93;1648177;80;21358;-73
2021/06/02 10:26:15;;;;;;;5.50;1.92;;;;;;;17.42;45.39;100240.31;1725596;81;21007;-75
2021/06/02 10:28:45;;;;;;;4.00;1.75;;;;;;;17.42;44.35;100238.98;1730557;81;21045;-74
2021/06/02 10:31:13;;;;;;;7.20;2.25;;;;;;;17.39;44.45;100239.55;1668596;84;21489;-74
2021/06/02 10:33:41;;;;;;;5.33;1.87;;;;;;;17.44;45.74;100239.25;1727586;82;21017;-74
2021/06/02 10:36:09;;;;;;;9.43;2.40;;;;;;;17.47;44.45;100238.20;1666581;84;21814;-74
2021/06/02 10:40:10;;;;;;;7.30;2.20;;;;;;;17.51;45.01;100239.72;1707236;77;22650;-73
2021/06/02 10:43:01;;;;;;;8.18;2.30;;;;;;;17.55;45.79;100243.87;1649127;86;21658;-73
2021/06/02 10:45:32;;;;;;;11.15;2.10;;;;;;;17.59;45.10;100247.57;1626607;86;21987;-72
2021/06/02 10:48:01;;;;;;;8.48;2.70;;;;;;;17.57;44.74;100244.63;1620767;88;21136;-72
2021/06/02 10:50:39;;;;;;;10.80;2.40;;;;;;;17.57;45.53;100245.96;1612932;86;21175;-73
2021/06/02 10:53:39;;;;;;;8.78;2.10;;;;;;;17.61;44.75;100243.48;1645969;85;21647;-73
2021/06/02 10:56:07;;;;;;;9.50;1.90;;;;;;;17.59;44.69;100245.39;1583725;87;21057;-74
2021/06/02 10:58:45;;;;;;;8.68;2.30;;;;;;;17.58;45.52;100239.22;1630004;84;21084;-75
2021/06/02 11:01:19;;;;;;;7.35;2.00;;;;;;;17.62;44.85;100247.84;1641907;86;21542;-74
2021/06/02 11:04:11;;;;;;;9.10;2.12;;;;;;;17.59;44.40;100236.07;1687697;83;21120;-75
2021/06/02 11:06:41;;;;;;;;;;;;;;;17.60;45.42;100249.30;1696118;83;21060;-74
2021/06/02 11:09:12;;;;;;;6.33;2.00;;;;;;;17.68;44.28;100238.14;1689334;81;20214;-73
2021/06/02 11:11:41;;;;;;;4.37;1.77;;;;;;;17.77;44.55;100246.86;1677191;85;21173;-73
2021/06/02 11:14:20;;;;;;;16.00;2.22;;;;;;;17.87;44.83;100246.29;1665128;85;21544;-71
2021/06/02 11:17:04;;;;;;;5.58;1.95;;;;;;;17.92;44.25;100253.50;1670058;84;21647;-71
2021/06/02 11:19:45;;;;;;;9.88;2.20;;;;;;;17.96;43.16;100245.69;1673493;85;21125;-71
2021/06/02 11:22:17;;;;;;;11.78;1.80;;;;;;;17.97;44.70;100235.42;1655927;85;21061;-72
2021/06/02 11:24:46;;;;;;;10.32;2.20;;;;;;;18.02;44.19;100238.62;1672853;81;21802;-75
2021/06/02 11:27:23;;;;;;;11.00;1.70;;;;;;;18.04;44.03;100247.38;1686086;83;21569;-72
2021/06/02 11:29:58;;;;;;;5.25;2.17;;;;;;;18.09;43.66;100243.92;1684329;84;21069;-74
2021/06/02 11:32:32;;;;;;;5.50;1.77;;;;;;;18.11;42.87;100250.02;1681333;84;21104;-74
2021/06/02 11:35:05;;;;;;;9.93;2.30;;;;;;;18.12;42.86;100247.71;1690899;84;21510;-74
2021/06/02 11:37:35;;;;;;;7.50;1.92;;;;;;;18.15;43.41;100249.31;1698030;83;21181;-74
2021/06/02 11:40:07;;;;;;;6.03;1.60;;;;;;;18.20;42.83;100246.73;1721279;80;21059;-72
2021/06/02 11:42:52;;;;;;;8.93;1.87;;;;;;;18.21;43.59;100244.91;1724163;82;21139;-71
2021/06/02 11:45:26;;;;;;;9.63;2.00;;;;;;;18.24;42.95;100236.25;1748335;80;21025;-72
2021/06/02 11:47:56;;;;;;;11.33;1.95;;;;;;;18.32;43.21;100244.20;1752696;80;21723;-71
2021/06/02 11:50:25;;;;;;;9.73;2.02;;;;;;;18.39;43.72;100240.16;1718624;81;21114;-73
2021/06/02 11:52:58;;;;;;;7.10;1.87;;;;;;;18.50;42.99;100248.28;1721943;81;21048;-72
2021/06/02 11:55:25;;;;;;;9.33;1.85;;;;;;;18.61;41.57;100251.08;1660083;81;22287;-77
2021/06/02 11:57:52;;;;;;;9.73;2.20;;;;;;;18.63;41.33;100242.95;1665176;84;21112;-77
2021/06/02 12:00:25;;;;;;;7.62;1.87;;;;;;;18.66;41.78;100243.61;1657906;84;21569;-78
2021/06/02 12:02:58;;;;;;;6.60;1.77;;;;;;;18.76;42.56;100240.30;1709405;83;22084;-78
2021/06/02 12:05:34;;;;;;;14.13;2.25;;;;;;;18.90;42.69;100232.21;1694675;83;22095;-78
2021/06/02 12:08:11;;;;;;;3.52;1.75;;;;;;;18.97;41.80;100237.48;1691021;83;21005;-79
2021/06/02 12:10:57;;;;;;;7.78;1.90;;;;;;;19.04;42.39;100240.09;1693696;80;21128;-71
2021/06/02 12:13:38;;;;;;;6.60;2.05;;;;;;;19.07;40.73;100233.69;1706676;83;21039;-72
2021/06/02 12:16:07;;;;;;;15.13;2.10;;;;;;;19.05;40.99;100252.50;1688058;83;21286;-72
2021/06/02 12:18:48;;;;;;;7.45;1.60;;;;;;;19.00;40.05;100233.30;1686479;83;21075;-74
2021/06/02 12:21:27;;;;;;;6.30;2.72;;;;;;;18.91;40.68;100242.40;1717598;82;21062;-71
2021/06/02 12:24:01;;;;;;;9.98;1.85;;;;;;;18.93;40.43;100245.33;1698943;79;21130;-82